Time;durP1;ratioP1;P1;durP2;ratioP2;P2;SDS_P1;SDS_P2;PMS_P1;PMS_P2;Temp;Humidity;BMP_temperature;BMP_pressure;BME280_temperature;BME280_humidity;BME280_pressure;Samples;Min_cycle;Max_cycle;Signal;HPM_P1;HPM_P2
2022/03/26 00:00:11;;;;;;;;;;;;;;;-144.19;100.00;78792.34;5013001;28;19947;-83
2022/03/26 00:02:37;;;;;;;;;;;;;;;-144.19;100.00;78808.09;5011943;28;20467;-83
2022/03/26 00:05:04;;;;;;;;;;;;;;;-144.19;100.00;78829.75;5031254;28;19925;-83
2022/03/26 00:07:30;;;;;;;;;;;;;;;-144.19;100.00;78829.75;5033916;28;20417;-83
2022/03/26 00:09:57;;;;;;;;;;;;;;;-144.19;100.00;78845.50;5034366;28;19929;-82
2022/03/26 00:12:23;;;;;;;;;;;;;;;-144.19;100.00;78835.66;5047771;28;20406;-82
2022/03/26 00:14:49;;;;;;;;;;;;;;;-144.19;100.00;78855.34;5033302;28;19933;-85
2022/03/26 00:17:16;;;;;;;;;;;;;;;-144.19;100.00;78863.22;5032170;28;20403;-83
2022/03/26 00:19:42;;;;;;;;;;;;;;;-144.19;100.00;78851.41;5033841;28;19931;-84
2022/03/26 00:22:08;;;;;;;;;;;;;;;-144.19;100.00;78829.75;5033055;28;19925;-83
2022/03/26 00:24:35;;;;;;;;;;;;;;;-144.19;100.00;78835.66;5034448;28;19931;-84
2022/03/26 00:27:01;;;;;;;;;;;;;;;-144.19;100.00;78839.59;5033076;28;19944;-83
2022/03/26 00:29:27;;;;;;;;;;;;;;;-144.19;100.00;78847.47;5032875;28;20364;-83
2022/03/26 00:31:53;;;;;;;;;;;;;;;-144.19;100.00;78859.28;5033282;28;19936;-83
2022/03/26 00:34:20;;;;;;;;;;;;;;;-144.19;100.00;78867.16;5022856;28;19929;-84
2022/03/26 00:36:46;;;;;;;;;;;;;;;-144.19;100.00;78863.22;5014094;28;19933;-85
2022/03/26 00:39:12;;;;;;;;;;;;;;;-144.19;100.00;78859.28;5013919;28;19926;-83
2022/03/26 00:41:39;;;;;;;;;;;;;;;-144.19;100.00;78867.16;5013625;28;19926;-83
2022/03/26 00:44:05;;;;;;;;;;;;;;;-144.19;100.00;78871.13;5012986;28;19925;-83
2022/03/26 00:46:31;;;;;;;;;;;;;;;-144.19;100.00;78877.03;5012265;28;19936;-84
2022/03/26 00:48:59;;;;;;;;;;;;;;;-144.19;100.00;78880.97;5030614;28;19960;-82
2022/03/26 00:51:26;;;;;;;;;;;;;;;-144.19;100.00;78886.88;5031861;28;19931;-82
2022/03/26 00:53:52;;;;;;;;;;;;;;;-144.19;100.00;78896.72;5031583;28;19925;-82
2022/03/26 00:56:18;;;;;;;;;;;;;;;-144.19;100.00;78910.50;5033371;28;19966;-85
2022/03/26 00:58:45;;;;;;;;;;;;;;;-144.19;100.00;78910.50;5015746;28;20400;-83
2022/03/26 01:01:11;;;;;;;;;;;;;;;-144.19;100.00;78910.50;5013800;28;20293;-85
2022/03/26 01:03:38;;;;;;;;;;;;;;;-144.19;100.00;78918.38;5076538;22;19926;-85
2022/03/26 01:06:06;;;;;;;;;;;;;;;-144.19;100.00;78938.06;5031417;28;20351;-86
2022/03/26 01:08:33;;;;;;;;;;;;;;;-144.19;100.00;78940.03;5047779;28;19925;-86
2022/03/26 01:11:01;;;;;;;;;;;;;;;-144.19;100.00;78945.94;5031579;28;19963;-85
2022/03/26 01:13:38;;;;;;;;;;;;;;;-144.19;100.00;78942.00;5031996;28;20028;-85
2022/03/26 01:16:06;;;;;;;;;;;;;;;-144.19;100.00;78945.94;5047865;28;19925;-85
2022/03/26 01:18:36;;;;;;;;;;;;;;;-144.19;100.00;78953.84;5031124;28;19994;-86
2022/03/26 01:21:03;;;;;;;;;;;;;;;-144.19;100.00;78967.63;5028620;28;19935;-85
2022/03/26 01:23:30;;;;;;;;;;;;;;;-144.19;100.00;78945.94;5029699;28;19925;-85
2022/03/26 01:25:58;;;;;;;;;;;;;;;-144.19;100.00;78949.91;5029076;28;20303;-85
2022/03/26 01:28:30;;;;;;;;;;;;;;;-144.19;100.00;78934.13;5021723;28;19925;-85
2022/03/26 01:31:00;;;;;;;;;;;;;;;-144.19;100.00;78947.94;5026635;28;19926;-86
2022/03/26 01:33:34;;;;;;;;;;;;;;;-144.19;100.00;78957.78;5026201;28;20029;-85
2022/03/26 01:36:06;;;;;;;;;;;;;;;-144.19;100.00;78959.75;5031549;28;19925;-86
2022/03/26 01:38:34;;;;;;;;;;;;;;;-144.19;100.00;78945.94;5030967;28;19929;-86
2022/03/26 01:41:15;;;;;;;;;;;;;;;-144.19;100.00;78942.00;5043300;28;19932;-86
2022/03/26 01:43:58;;;;;;;;;;;;;;;-144.19;100.00;78945.94;5020852;28;20384;-85
2022/03/26 01:46:25;;;;;;;;;;;;;;;-144.19;100.00;78945.94;5029392;28;19929;-86
2022/03/26 01:48:55;;;;;;;;;;;;;;;-144.19;100.00;78949.91;5030310;28;19932;-85
2022/03/26 01:51:30;;;;;;;;;;;;;;;-144.19;100.00;78981.41;5011035;28;19957;-85
2022/03/26 01:54:09;;;;;;;;;;;;;;;-144.19;100.00;78987.31;5011265;28;20391;-86
2022/03/26 01:56:37;;;;;;;;;;;;;;;-144.19;100.00;78977.47;5010695;28;20008;-85
2022/03/26 01:59:05;;;;;;;;;;;;;;;-144.19;100.00;78981.41;5008156;28;19933;-85
2022/03/26 02:01:42;;;;;;;;;;;;;;;-144.19;100.00;78991.25;5009540;28;19930;-85
2022/03/26 02:04:11;;;;;;;;;;;;;;;-144.19;100.00;78979.44;5018952;28;19968;-84
2022/03/26 02:06:40;;;;;;;;;;;;;;;-144.19;100.00;78989.28;5047273;28;19932;-85
2022/03/26 02:09:13;;;;;;;;;;;;;;;-144.19;100.00;78983.38;5031373;28;19964;-86
2022/03/26 02:11:44;;;;;;;;;;;;;;;-144.19;100.00;78993.22;5029320;28;19925;-85
2022/03/26 02:14:24;;;;;;;;;;;;;;;-144.19;100.00;78993.22;5029081;28;19925;-85
2022/03/26 02:16:52;;;;;;;;;;;;;;;-144.19;100.00;78991.25;5029893;28;19931;-85
2022/03/26 02:19:29;;;;;;;;;;;;;;;-144.19;100.00;78993.22;5031025;28;19997;-85
2022/03/26 02:21:56;;;;;;;;;;;;;;;-144.19;100.00;79016.84;5030700;28;19925;-85
2022/03/26 02:24:25;;;;;;;;;;;;;;;-144.19;100.00;79024.75;5032054;28;19929;-85
2022/03/26 02:26:54;;;;;;;;;;;;;;;-144.19;100.00;78995.19;5030859;28;19936;-86
2022/03/26 02:29:21;;;;;;;;;;;;;;;-144.19;100.00;78977.47;5032033;28;19925;-86
2022/03/26 02:31:48;;;;;;;;;;;;;;;-144.19;100.00;78957.78;5030460;28;19956;-86
2022/03/26 02:34:26;;;;;;;;;;;;;;;-144.19;100.00;78965.66;5029732;28;19929;-86
2022/03/26 02:37:18;;;;;;;;;;;;;;;-144.19;100.00;78985.34;5026158;28;19957;-85
2022/03/26 02:40:38;;;;;;;;;;;;;;;-144.19;100.00;78993.22;5031682;28;19925;-86
2022/03/26 02:42:46;;;;;;;;;;;;;;;-144.19;100.00;78989.28;5027025;28;19968;-85
2022/03/26 02:45:21;;;;;;;;;;;;;;;-144.19;100.00;79012.91;5032074;28;19935;-85
2022/03/26 02:47:51;;;;;;;;;;;;;;;-144.19;100.00;79036.56;5047151;28;19936;-85
2022/03/26 02:50:18;;;;;;;;;;;;;;;-144.19;100.00;79048.38;5030581;28;19953;-85
2022/03/26 02:52:56;;;;;;;;;;;;;;;-144.19;100.00;79044.44;5027794;28;20395;-85
2022/03/26 02:56:19;;;;;;;;;;;;;;;-144.19;100.00;79044.44;4921373;29;19927;-85
2022/03/26 02:58:49;;;;;;;;;;;;;;;-144.19;100.00;79046.41;4989088;28;19965;-85
2022/03/26 03:01:20;;;;;;;;;;;;;;;-144.19;100.00;79044.44;5013826;28;20421;-85
2022/03/26 03:03:47;;;;;;;;;;;;;;;-144.19;100.00;79056.25;5013471;28;19936;-86
2022/03/26 03:06:19;;;;;;;;;;;;;;;-144.19;100.00;79054.28;5013146;28;19929;-85
2022/03/26 03:08:55;;;;;;;;;;;;;;;-144.19;100.00;79048.38;5013971;28;19965;-86
2022/03/26 03:11:22;;;;;;;;;;;;;;;-144.19;100.00;79044.44;5014115;28;19997;-86
2022/03/26 03:13:53;;;;;;;;;;;;;;;-144.19;100.00;79044.44;5014436;28;19998;-86
2022/03/26 03:16:20;;;;;;;;;;;;;;;-144.19;100.00;79064.13;5013278;28;20300;-85
2022/03/26 03:18:50;;;;;;;;;;;;;;;-144.19;100.00;79072.00;5031015;28;19925;-84
2022/03/26 03:21:23;;;;;;;;;;;;;;;-144.19;100.00;79075.94;5032678;28;19930;-85
2022/03/26 03:23:50;;;;;;;;;;;;;;;-144.19;100.00;79056.25;5033104;28;19931;-85
2022/03/26 03:26:34;;;;;;;;;;;;;;;-144.19;100.00;79060.19;5030969;28;19984;-85
2022/03/26 03:29:01;;;;;;;;;;;;;;;-144.19;100.00;79064.13;5033345;28;19925;-86
2022/03/26 03:31:28;;;;;;;;;;;;;;;-144.19;100.00;79048.38;5032822;28;19926;-85
2022/03/26 03:34:00;;;;;;;;;;;;;;;-144.19;100.00;79052.31;5033295;28;19929;-85
2022/03/26 03:36:30;;;;;;;;;;;;;;;-144.19;100.00;79056.25;5031624;28;19925;-86
2022/03/26 03:38:57;;;;;;;;;;;;;;;-144.19;100.00;79064.13;5032781;28;20020;-85
2022/03/26 03:41:30;;;;;;;;;;;;;;;-144.19;100.00;79075.94;5033097;28;19961;-85
2022/03/26 03:43:57;;;;;;;;;;;;;;;-144.19;100.00;79064.13;5033083;28;19926;-85
2022/03/26 03:46:27;;;;;;;;;;;;;;;-144.19;100.00;79072.00;5032194;28;19935;-85
2022/03/26 03:48:58;;;;;;;;;;;;;;;-144.19;100.00;79091.72;5032202;28;20260;-85
2022/03/26 03:51:37;;;;;;;;;;;;;;;-144.19;100.00;79083.81;5030015;28;19926;-85
2022/03/26 03:54:08;;;;;;;;;;;;;;;-144.19;100.00;79083.81;5031188;28;19960;-86
2022/03/26 03:56:38;;;;;;;;;;;;;;;-144.19;100.00;79068.06;5033552;28;20032;-85
2022/03/26 03:59:08;;;;;;;;;;;;;;;-144.19;100.00;79079.88;5032008;28;19935;-86
2022/03/26 04:01:54;;;;;;;;;;;;;;;-144.19;100.00;79075.94;5031139;28;20391;-85
2022/03/26 04:04:24;;;;;;;;;;;;;;;-144.19;100.00;79083.81;5031144;28;19929;-85
2022/03/26 04:06:54;;;;;;;;;;;;;;;-144.19;100.00;79083.81;5031275;28;19987;-85
2022/03/26 04:09:21;;;;;;;;;;;;;;;-144.19;100.00;79072.00;5046914;28;19985;-85
2022/03/26 04:11:57;;;;;;;;;;;;;;;-144.19;100.00;79068.06;5030351;28;20284;-85
2022/03/26 04:14:24;;;;;;;;;;;;;;;-144.19;100.00;79072.00;5032880;28;19975;-86
2022/03/26 04:16:52;;;;;;;;;;;;;;;-144.19;100.00;79075.94;5032604;28;19989;-85
2022/03/26 04:19:25;;;;;;;;;;;;;;;-144.19;100.00;79075.94;5044848;28;19933;-85
2022/03/26 04:21:56;;;;;;;;;;;;;;;-144.19;100.00;79079.88;5045155;28;19926;-85
2022/03/26 04:24:23;;;;;;;;;;;;;;;-144.19;100.00;79103.53;5015686;28;20004;-85
2022/03/26 04:26:55;;;;;;;;;;;;;;;-144.19;100.00;79111.41;5018399;28;19966;-85
2022/03/26 04:29:25;;;;;;;;;;;;;;;-144.19;100.00;79111.41;5023776;28;19925;-86
2022/03/26 04:31:55;;;;;;;;;;;;;;;-144.19;100.00;79101.56;5028828;28;19925;-85
2022/03/26 04:34:22;;;;;;;;;;;;;;;-144.19;100.00;79109.44;5028320;28;19932;-85
2022/03/26 04:37:01;;;;;;;;;;;;;;;-144.19;100.00;79119.28;5028994;28;19925;-85
2022/03/26 04:39:32;;;;;;;;;;;;;;;-144.19;100.00;79123.22;5031801;28;19933;-85
2022/03/26 04:41:59;;;;;;;;;;;;;;;-144.19;100.00;79127.16;5032221;28;19949;-85
2022/03/26 04:44:29;;;;;;;;;;;;;;;-144.19;100.00;79127.16;5031547;28;19937;-85
2022/03/26 04:46:58;;;;;;;;;;;;;;;-144.19;100.00;79131.09;5030407;28;19936;-85
2022/03/26 04:49:27;;;;;;;;;;;;;;;-144.19;100.00;79115.34;5032941;28;20465;-85
2022/03/26 04:51:57;;;;;;;;;;;;;;;-144.19;100.00;79111.41;5031369;28;19929;-85
2022/03/26 04:55:01;;;;;;;;;;;;;;;-144.19;100.00;79127.16;5032131;28;19932;-85
2022/03/26 04:58:02;;;;;;;;;;;;;;;-144.19;100.00;79140.94;5025680;28;20475;-85
2022/03/26 05:01:00;;;;;;;;;;;;;;;-144.19;100.00;79144.88;5017452;28;19932;-86
2022/03/26 05:03:42;;;;;;;;;;;;;;;-144.19;100.00;79158.69;4996211;28;20444;-85
2022/03/26 05:06:15;;;;;;;;;;;;;;;-144.19;100.00;79172.47;5024050;28;19926;-85
2022/03/26 05:08:50;;;;;;;;;;;;;;;-144.19;100.00;79176.41;5028326;28;19925;-86
2022/03/26 05:11:19;;;;;;;;;;;;;;;-144.19;100.00;79174.44;5031239;28;19929;-85
2022/03/26 05:13:47;;;;;;;;;;;;;;;-144.19;100.00;79178.38;5030510;28;19925;-85
2022/03/26 05:16:14;;;;;;;;;;;;;;;-144.19;100.00;79182.31;5047155;28;19926;-85
2022/03/26 05:18:41;;;;;;;;;;;;;;;-144.19;100.00;79178.38;5030615;28;19948;-85
2022/03/26 05:21:11;;;;;;;;;;;;;;;-144.19;100.00;79186.25;5030110;28;19926;-85
2022/03/26 05:23:38;;;;;;;;;;;;;;;-144.19;100.00;79186.25;5031046;28;19933;-86
2022/03/26 05:26:08;;;;;;;;;;;;;;;-144.19;100.00;79178.38;5030494;28;19925;-86
2022/03/26 05:28:40;;;;;;;;;;;;;;;-144.19;100.00;79182.31;5031448;28;19930;-85
2022/03/26 05:31:10;;;;;;;;;;;;;;;-144.19;100.00;79186.25;5030709;28;19940;-85
2022/03/26 05:33:40;;;;;;;;;;;;;;;-144.19;100.00;79188.22;5031267;28;19940;-85
2022/03/26 05:36:30;;;;;;;;;;;;;;;-144.19;100.00;79170.50;5028999;28;19925;-84
2022/03/26 05:39:22;;;;;;;;;;;;;;;-144.19;100.00;79168.53;5028838;28;19926;-85
2022/03/26 05:41:59;;;;;;;;;;;;;;;-144.19;100.00;79168.53;5030583;28;19953;-85
2022/03/26 05:44:41;;;;;;;;;;;;;;;-144.19;100.00;79158.69;5029102;28;19925;-84
2022/03/26 05:47:52;;;;;;;;;;;;;;;-144.19;100.00;79170.50;4971143;29;19942;-84
2022/03/26 05:50:19;;;;;;;;;;;;;;;-144.19;100.00;79174.44;4954880;29;19926;-85
2022/03/26 05:52:47;;;;;;;;;;;;;;;-144.19;100.00;79172.47;5001427;28;19929;-85
2022/03/26 05:55:27;;;;;;;;;;;;;;;-144.19;100.00;79170.50;5031044;28;19972;-85
2022/03/26 05:58:15;;;;;;;;;;;;;;;-144.19;100.00;79158.69;5021201;28;19961;-85
2022/03/26 06:01:05;;;;;;;;;;;;;;;-144.19;100.00;79142.91;5011235;28;19976;-85
2022/03/26 06:03:34;;;;;;;;;;;;;;;-144.19;100.00;79133.06;5011168;28;20341;-86
2022/03/26 06:06:06;;;;;;;;;;;;;;;-144.19;100.00;79131.09;5025047;28;19932;-86
2022/03/26 06:08:43;;;;;;;;;;;;;;;-144.19;100.00;79138.97;5030113;28;19984;-85
2022/03/26 06:11:23;;;;;;;;;;;;;;;-144.19;100.00;79146.84;5024570;28;19969;-85
2022/03/26 06:14:07;;;;;;;;;;;;;;;-144.19;100.00;79133.06;5023864;28;19969;-85
2022/03/26 06:16:48;;;;;;;;;;;;;;;-144.19;100.00;79119.28;5023594;28;19929;-85
2022/03/26 06:19:25;;;;;;;;;;;;;;;-144.19;100.00;79119.28;5023915;28;19925;-85
2022/03/26 06:21:55;;;;;;;;;;;;;;;-144.19;100.00;79115.34;5020371;28;19937;-84
2022/03/26 06:24:46;;;;;;;;;;;;;;;-144.19;100.00;79109.44;4964446;29;19937;-85
2022/03/26 06:27:24;;;;;;;;;;;;;;;-144.19;100.00;79093.69;4943068;29;19927;-85
2022/03/26 06:33:15;;;;;;;;;;;;;;;-144.19;100.00;79056.25;4958854;29;19926;-85
2022/03/26 06:49:21;;;;;;;;;;;;;;;-144.19;100.00;78957.78;4914144;29;19930;-85
2022/03/26 06:51:48;;;;;;;;;;;;;;;-144.19;100.00;78920.34;4964096;29;19930;-86
2022/03/26 06:54:21;;;;;;;;;;;;;;;-144.19;100.00;78918.38;4972765;29;19942;-84
2022/03/26 06:56:56;;;;;;;;;;;;;;;-144.19;100.00;78906.56;4972538;29;19926;-86
2022/03/26 06:59:29;;;;;;;;;;;;;;;-144.19;100.00;78892.78;4969060;29;19930;-85
2022/03/26 07:02:06;;;;;;;;;;;;;;;-144.19;100.00;78880.97;4998222;28;19965;-84
2022/03/26 07:04:35;;;;;;;;;;;;;;;-144.19;100.00;78871.13;4974278;23;1824689;-82
2022/03/26 07:07:02;;;;;;;;;;;;;;;-144.19;100.00;78851.41;5025718;28;20201;-83
2022/03/26 07:09:31;;;;;;;;;;;;;;;-144.19;100.00;78823.84;5025180;28;20379;-83
2022/03/26 07:11:57;;;;;;;;;;;;;;;-144.19;100.00;78827.78;5026165;28;19925;-82
2022/03/26 07:14:23;;;;;;;;;;;;;;;-144.19;100.00;78821.88;5040797;28;19925;-83
2022/03/26 07:16:52;;;;;;;;;;;;;;;-144.19;100.00;78810.06;5039386;28;19925;-83
2022/03/26 07:19:19;;;;;;;;;;;;;;;-144.19;100.00;78788.38;5019844;28;19936;-82
2022/03/26 07:21:45;;;;;;;;;;;;;;;-144.19;100.00;78768.69;5039945;28;19932;-84
2022/03/26 07:24:12;;;;;;;;;;;;;;;-144.19;100.00;78752.94;5028212;28;19925;-83
2022/03/26 07:26:38;;;;;;;;;;;;;;;-144.19;100.00;78721.44;5049649;28;19925;-85
2022/03/26 07:29:04;;;;;;;;;;;;;;;-144.19;100.00;78697.78;5034046;28;20555;-82
2022/03/26 07:31:31;;;;;;;;;;;;;;;-144.19;100.00;78684.00;5034413;28;19929;-84
2022/03/26 07:33:57;;;;;;;;;;;;;;;-144.19;100.00;78670.22;5028075;28;19926;-82
2022/03/26 07:36:23;;;;;;;;;;;;;;;-144.19;100.00;78664.31;5014636;28;20415;-81
2022/03/26 07:38:50;;;;;;;;;;;;;;;-144.19;100.00;78638.72;5013536;28;19925;-82
2022/03/26 07:41:17;;;;;;;;;;;;;;;-144.19;100.00;78622.97;5030026;28;19948;-82
2022/03/26 07:43:43;;;;;;;;;;;;;;;-144.19;100.00;78603.25;5013417;28;19925;-82
2022/03/26 07:46:09;;;;;;;;;;;;;;;-144.19;100.00;78599.31;5014054;28;19957;-81
2022/03/26 07:48:36;;;;;;;;;;;;;;;-144.19;100.00;78567.81;5015561;28;19932;-82
2022/03/26 07:51:03;;;;;;;;;;;;;;;-144.19;100.00;78552.06;5013065;28;19925;-84
2022/03/26 07:53:29;;;;;;;;;;;;;;;-144.19;100.00;78536.31;4995024;28;19926;-83
2022/03/26 07:55:56;;;;;;;;;;;;;;;-144.19;100.00;78518.56;5005406;28;19925;-82
2022/03/26 07:58:22;;;;;;;;;;;;;;;-144.19;100.00;78502.81;5011718;28;20452;-83
2022/03/26 08:00:49;;;;;;;;;;;;;;;-144.19;100.00;78469.34;5014425;28;19925;-83
2022/03/26 08:03:16;;;;;;;;;;;;;;;-144.19;100.00;78461.47;5012260;28;20323;-82
2022/03/26 08:05:42;;;;;;;;;;;;;;;-144.19;100.00;78449.66;5014833;28;19948;-81
2022/03/26 08:08:08;;;;;;;;;;;;;;;-144.19;100.00;78424.06;5028500;28;19925;-81
2022/03/26 08:10:35;;;;;;;;;;;;;;;-144.19;100.00;78392.53;5013809;28;20222;-83
2022/03/26 08:13:01;;;;;;;;;;;;;;;-144.19;100.00;78376.78;5014297;28;19926;-82
2022/03/26 08:15:27;;;;;;;;;;;;;;;-144.19;100.00;78347.25;5029968;28;19936;-84
2022/03/26 08:17:54;;;;;;;;;;;;;;;-144.19;100.00;78347.25;5028611;28;19926;-85
2022/03/26 08:20:20;;;;;;;;;;;;;;;-144.19;100.00;78343.31;5013056;28;19925;-84
2022/03/26 08:22:46;;;;;;;;;;;;;;;-144.19;100.00;78307.88;5013836;28;19929;-83
2022/03/26 08:26:19;;;;;;;;;;;;;;;-144.19;100.00;78288.16;5028374;28;19925;-82
2022/03/26 08:28:03;;;;;;;;;;;;;;;-144.19;100.00;78278.31;5014555;28;19936;-82
2022/03/26 08:30:30;;;;;;;;;;;;;;;-144.19;100.00;78272.41;5013407;28;19926;-83
2022/03/26 08:32:56;;;;;;;;;;;;;;;-144.19;100.00;78235.00;5011945;28;19929;-81
2022/03/26 08:35:24;;;;;;;;;;;;;;;-144.19;100.00;78242.88;5030389;28;19948;-82
2022/03/26 08:37:50;;;;;;;;;;;;;;;-144.19;100.00;78211.38;5033191;28;19935;-83
2022/03/26 08:40:16;;;;;;;;;;;;;;;-144.19;100.00;78189.72;5031179;28;20496;-83
2022/03/26 08:42:43;;;;;;;;;;;;;;;-144.19;100.00;78140.47;5031139;28;19929;-83
2022/03/26 08:45:09;;;;;;;;;;;;;;;-144.19;100.00;78138.50;5038015;28;20016;-82
2022/03/26 08:47:35;;;;;;;;;;;;;;;-144.19;100.00;78118.81;5035536;28;19929;-82
2022/03/26 08:50:02;;;;;;;;;;;;;;;-144.19;100.00;78095.19;5042737;28;20288;-82
2022/03/26 08:52:28;;;;;;;;;;;;;;;-144.19;100.00;78091.25;5047019;28;19925;-84
2022/03/26 08:54:55;;;;;;;;;;;;;;;-144.19;100.00;78065.66;5023473;28;19930;-83
2022/03/26 08:57:21;;;;;;;;;;;;;;;-144.19;100.00;78045.97;5012470;28;19933;-82
2022/03/26 08:59:47;;;;;;;;;;;;;;;-144.19;100.00;78057.78;5011985;28;20544;-84
2022/03/26 09:02:13;;;;;;;;;;;;;;;-144.19;100.00;78020.34;5009704;28;19938;-83
2022/03/26 09:04:40;;;;;;;;;;;;;;;-144.19;100.00;78000.66;5043062;28;19925;-84
2022/03/26 09:07:06;;;;;;;;;;;;;;;-144.19;100.00;78004.59;5031126;28;19944;-83
2022/03/26 09:09:33;;;;;;;;;;;;;;;-144.19;100.00;77992.78;5046492;28;19974;-84
2022/03/26 09:11:59;;;;;;;;;;;;;;;-144.19;100.00;77990.81;5046560;28;19932;-84
2022/03/26 09:14:26;;;;;;;;;;;;;;;-144.19;100.00;77965.22;5046276;28;19983;-84
2022/03/26 09:16:52;;;;;;;;;;;;;;;-144.19;100.00;77937.66;5024879;28;19932;-83
2022/03/26 09:19:19;;;;;;;;;;;;;;;-144.19;100.00;77941.59;5026856;28;20037;-84
2022/03/26 09:21:46;;;;;;;;;;;;;;;-144.19;100.00;77921.91;5031092;28;19929;-85
2022/03/26 09:24:15;;;;;;;;;;;;;;;-144.19;100.00;77906.16;5009016;28;19936;-82
2022/03/26 09:26:42;;;;;;;;;;;;;;;-144.19;100.00;77864.81;5013795;28;20557;-86
2022/03/26 09:29:08;;;;;;;;;;;;;;;-144.19;100.00;77878.59;5014125;28;20288;-82
2022/03/26 09:31:35;;;;;;;;;;;;;;;-144.19;100.00;77803.75;5010618;28;19929;-80
2022/03/26 09:34:01;;;;;;;;;;;;;;;-144.19;100.00;77839.19;5017502;28;19925;-83
2022/03/26 09:36:27;;;;;;;;;;;;;;;-144.19;100.00;77803.75;5027825;28;19936;-85
2022/03/26 09:38:54;;;;;;;;;;;;;;;-144.19;100.00;77801.78;5013108;28;19931;-85
2022/03/26 09:41:22;;;;;;;;;;;;;;;-144.19;100.00;77797.84;5027090;28;19933;-85
2022/03/26 09:43:49;;;;;;;;;;;;;;;-144.19;97.89;77788.00;5010935;28;19932;-82
2022/03/26 09:46:15;;;;;;;;;;;;;;;-144.19;98.46;77744.69;5026667;28;19929;-83
2022/03/26 09:48:43;;;;;;;;;;;;;;;-144.19;100.00;77750.59;5028965;28;19976;-84
2022/03/26 09:51:13;;;;;;;;;;;;;;;-144.19;95.78;77748.63;5012168;28;20318;-83
2022/03/26 09:53:40;;;;;;;;;;;;;;;-144.19;93.95;77738.78;5013114;28;19926;-85
2022/03/26 09:56:07;;;;;;;;;;;;;;;-144.19;98.00;77693.50;5009628;28;20472;-82
2022/03/26 09:58:33;;;;;;;;;;;;;;;-144.19;92.38;77685.63;5011978;28;19932;-81
2022/03/26 10:00:59;;;;;;;;;;;;;;;-144.19;88.97;77681.69;5010846;28;20394;-82
2022/03/26 10:03:26;;;;;;;;;;;;;;;-144.19;96.61;77685.63;5012512;28;19929;-84
2022/03/26 10:06:03;;;;;;;;;;;;;;;-144.19;90.59;77681.69;5027655;28;19925;-83
2022/03/26 10:08:33;;;;;;;;;;;;;;;-144.19;84.39;77628.53;5026366;28;19933;-81
2022/03/26 10:10:59;;;;;;;;;;;;;;;-144.19;88.18;77587.19;5032196;28;19941;-82
2022/03/26 10:13:43;;;;;;;;;;;;;;;-144.19;80.48;77583.25;5015579;28;19929;-82
2022/03/26 10:16:11;;;;;;;;;;;;;;;-144.19;84.54;77567.50;5016140;28;19980;-83
2022/03/26 10:18:38;;;;;;;;;;;;;;;-144.19;77.95;77512.34;5015250;28;19935;-84
2022/03/26 10:21:06;;;;;;;;;;;;;;;-144.19;78.38;77530.06;5012307;28;19929;-82
2022/03/26 10:23:33;;;;;;;;;;;;;;;-144.19;79.29;77518.25;5030590;28;19925;-84
2022/03/26 10:26:13;;;;;;;;;;;;;;;-144.19;79.25;77500.53;5031274;28;19931;-83
2022/03/26 10:28:42;;;;;;;;;;;;;;;-144.19;78.54;77467.06;5031675;28;19925;-83
2022/03/26 10:34:03;;;;;;;;;;;;;;;-144.19;79.28;77398.16;5019722;28;20419;-83
2022/03/26 10:36:30;;;;;;;;;;;;;;;-144.19;80.18;77341.06;5034426;28;19936;-84
2022/03/26 10:38:56;;;;;;;;;;;;;;;-144.19;75.47;77354.84;5035544;28;20280;-81
2022/03/26 10:41:23;;;;;;;;;;;;;;;-144.19;78.36;77287.91;5034912;28;19925;-81
2022/03/26 10:44:04;;;;;;;;;;;;;;;-144.19;79.10;77252.47;5032835;28;19932;-83
2022/03/26 10:46:30;;;;;;;;;;;;;;;-144.19;76.36;77205.22;5048561;28;20314;-84
2022/03/26 10:49:01;;;;;;;;;;;;;;;-144.19;71.84;77240.66;5029957;28;20422;-82
2022/03/26 10:51:34;;;;;;;;;;;;;;;-144.19;73.52;77283.97;5029785;28;19929;-83
2022/03/26 10:54:07;;;;;;;;;;;;;;;-144.19;71.73;77283.97;5013946;28;20430;-80
2022/03/26 10:56:33;;;;;;;;;;;;;;;-144.19;71.39;77276.09;5015139;28;19936;-84
2022/03/26 10:59:00;;;;;;;;;;;;;;;-144.19;74.03;77156.00;5032288;28;19926;-80
2022/03/26 11:01:27;;;;;;;;;;;;;;;-144.19;69.93;77154.03;5029040;28;19932;-84
2022/03/26 11:03:54;;;;;;;;;;;;;;;-144.19;69.74;77213.09;5013265;28;19925;-83
2022/03/26 11:06:24;;;;;;;;;;;;;;;-144.19;68.06;77201.28;5015371;28;19933;-85
2022/03/26 11:08:51;;;;;;;;;;;;;;;-144.19;71.12;77043.78;5030024;28;19926;-80
2022/03/26 11:11:18;;;;;;;;;;;;;;;-144.19;67.22;77181.59;5027769;28;19932;-82
2022/03/26 11:13:46;;;;;;;;;;;;;;;-144.19;68.54;77236.72;5014400;28;20352;-83
2022/03/26 11:16:36;;;;;;;;;;;;;;;-144.19;69.55;77165.84;5014442;28;19929;-84
2022/03/26 11:19:11;;;;;;;;;;;;;;;-144.19;69.63;77118.59;5015783;28;19929;-85
2022/03/26 11:21:56;;;;;;;;;;;;;;;-144.19;67.19;77181.59;5013667;28;19929;-80
2022/03/26 11:24:29;;;;;;;;;;;;;;;-144.19;67.57;77240.66;5013994;28;20380;-82
2022/03/26 11:27:22;;;;;;;;;;;;;;;-144.19;67.94;77142.22;5015340;28;19925;-81
2022/03/26 11:30:08;;;;;;;;;;;;;;;-144.19;69.25;77053.63;4990207;28;19929;-81
2022/03/26 11:32:43;;;;;;;;;;;;;;;-144.19;67.57;77087.09;5014129;28;19926;-82
2022/03/26 11:35:14;;;;;;;;;;;;;;;-144.19;65.90;77004.41;5044966;28;19929;-83
2022/03/26 11:37:53;;;;;;;;;;;;;;;-144.19;64.18;77008.34;5034123;28;19930;-84
2022/03/26 11:40:38;;;;;;;;;;;;;;;-144.19;66.50;76965.06;5033050;28;19935;-84
2022/03/26 11:43:04;;;;;;;;;;;;;;;-144.19;62.35;76929.63;5031171;28;19936;-83
2022/03/26 11:51:19;;;;;;;;;;;;;;;-144.19;66.92;77081.19;5011720;28;19925;-83
2022/03/26 11:53:55;;;;;;;;;;;;;;;-144.19;64.53;77181.59;5028185;28;19980;-81
2022/03/26 11:56:23;;;;;;;;;;;;;;;-144.19;65.22;77065.44;5028412;28;19925;-85
2022/03/26 11:59:08;;;;;;;;;;;;;;;-144.19;65.71;77083.16;5028192;28;19932;-83
2022/03/26 12:01:38;;;;;;;;;;;;;;;-144.19;64.26;77035.91;5013518;28;20303;-81
2022/03/26 12:04:11;;;;;;;;;;;;;;;-144.19;63.09;76937.50;5011861;28;19925;-85
2022/03/26 12:06:41;;;;;;;;;;;;;;;-144.19;62.06;77028.03;5009437;28;19925;-86
2022/03/26 12:09:09;;;;;;;;;;;;;;;-144.19;63.01;77071.34;5028628;28;19925;-85
2022/03/26 12:11:35;;;;;;;;;;;;;;;-144.19;65.41;76980.78;5013575;28;20028;-82
2022/03/26 12:14:05;;;;;;;;;;;;;;;-144.19;65.95;77039.84;5012952;28;20281;-86
2022/03/26 12:16:50;;;;;;;;;;;;;;;-144.19;64.09;77165.84;5013575;28;19926;-84
2022/03/26 12:19:35;;;;;;;;;;;;;;;-144.19;64.75;77120.56;5028479;28;20571;-82
2022/03/26 12:22:20;;;;;;;;;;;;;;;-144.19;62.95;77085.13;5012390;28;20387;-81
2022/03/26 12:24:48;;;;;;;;;;;;;;;-144.19;60.74;77049.69;5013601;28;19956;-86
2022/03/26 12:27:15;;;;;;;;;;;;;;;-144.19;60.27;77039.84;5013435;28;20311;-85
2022/03/26 12:29:41;;;;;;;;;;;;;;;-144.19;58.78;77065.44;5013633;28;19932;-85
2022/03/26 12:32:08;;;;;;;;;;;;;;;-144.19;61.45;77004.41;5032737;28;19929;-88
2022/03/26 12:34:54;;;;;;;;;;;;;;;-144.19;63.14;77051.66;5021861;28;19929;-85
2022/03/26 12:37:22;;;;;;;;;;;;;;;-144.19;62.28;77031.97;5021193;28;19937;-84
2022/03/26 12:39:48;;;;;;;;;;;;;;;-144.19;61.96;77057.56;5028561;28;19962;-86
2022/03/26 12:42:14;;;;;;;;;;;;;;;-144.19;62.00;76994.56;5012567;28;20111;-85
2022/03/26 12:44:42;;;;;;;;;;;;;;;-144.19;60.70;76996.53;5028752;28;19926;-85
2022/03/26 12:47:08;;;;;;;;;;;;;;;-144.19;62.25;77094.97;5013052;28;19949;-82
2022/03/26 12:49:35;;;;;;;;;;;;;;;-144.19;64.10;77085.13;5012885;28;19929;-85
2022/03/26 12:52:02;;;;;;;;;;;;;;;-144.19;63.88;77063.47;5026485;28;19926;-85
2022/03/26 12:54:29;;;;;;;;;;;;;;;-144.19;64.70;77039.84;5028176;28;19948;-82
2022/03/26 12:56:55;;;;;;;;;;;;;;;-144.19;68.93;76992.59;5012233;28;19930;-85
2022/03/26 12:59:21;;;;;;;;;;;;;;;-144.19;63.88;77126.47;5012769;28;19933;-82
2022/03/26 13:01:55;;;;;;;;;;;;;;;-144.19;64.48;77055.59;5012777;28;19929;-84
2022/03/26 13:04:22;;;;;;;;;;;;;;;-144.19;64.29;77167.81;5044316;22;19991;-85